createdAt,value
2018-03-14T00:00:52.881Z,6.99
2018-03-14T00:03:20.363Z,7.15
2018-03-14T00:05:47.825Z,7.12
2018-03-14T00:08:15.549Z,7.15
2018-03-14T00:10:43.026Z,7.23
2018-03-14T00:13:10.477Z,7.25
2018-03-14T00:15:37.958Z,7.16
2018-03-14T00:18:05.421Z,7.14
2018-03-14T00:20:32.905Z,7.47
2018-03-14T00:23:00.361Z,7.08
2018-03-14T00:25:27.834Z,7.40
2018-03-14T00:27:55.313Z,7.33
2018-03-14T00:30:22.797Z,7.23
2018-03-14T00:32:50.281Z,7.31
2018-03-14T00:35:17.765Z,7.18
2018-03-14T00:37:45.225Z,7.09
2018-03-14T00:40:12.740Z,7.20
2018-03-14T00:42:40.209Z,7.27
2018-03-14T00:45:07.697Z,7.18
2018-03-14T00:47:35.149Z,7.16
2018-03-14T00:50:02.607Z,7.17
2018-03-14T00:52:30.084Z,7.04
2018-03-14T00:54:58.010Z,7.12
2018-03-14T00:57:25.901Z,7.01
2018-03-14T00:59:53.357Z,7.02
2018-03-14T01:02:20.813Z,7.17
2018-03-14T01:04:48.289Z,7.10
2018-03-14T01:07:15.771Z,7.22
2018-03-14T01:09:43.389Z,7.28
2018-03-14T01:12:10.845Z,7.24
2018-03-14T01:14:38.297Z,7.18
2018-03-14T01:17:05.774Z,7.04
2018-03-14T01:19:33.241Z,7.12
2018-03-14T01:22:00.729Z,7.15
2018-03-14T01:24:28.181Z,7.06
2018-03-14T01:26:55.641Z,6.96
2018-03-14T01:29:23.125Z,7.32
2018-03-14T01:31:50.592Z,7.20
2018-03-14T01:34:18.074Z,7.30
2018-03-14T01:36:45.540Z,7.19
2018-03-14T01:39:13.028Z,6.96
2018-03-14T01:41:41.091Z,6.98
2018-03-14T01:44:08.557Z,6.88
2018-03-14T01:46:36.254Z,6.91
2018-03-14T01:49:03.799Z,6.95
2018-03-14T01:51:31.261Z,6.94
2018-03-14T01:53:58.757Z,6.90
2018-03-14T01:56:26.214Z,6.84
2018-03-14T01:58:53.912Z,6.78
2018-03-14T02:01:21.368Z,6.85
2018-03-14T02:03:48.841Z,6.79
2018-03-14T02:06:16.321Z,6.76
2018-03-14T02:08:43.785Z,6.67
2018-03-14T02:11:11.565Z,6.71
2018-03-14T02:13:39.021Z,6.74
2018-03-14T02:16:06.481Z,6.81
2018-03-14T02:18:33.985Z,6.84
2018-03-14T02:21:01.438Z,6.75
2018-03-14T02:23:29.112Z,6.96
2018-03-14T02:25:56.569Z,6.66
2018-03-14T02:28:24.592Z,6.68
2018-03-14T02:30:52.190Z,6.63
2018-03-14T02:33:19.657Z,6.69
2018-03-14T02:35:47.149Z,6.58
2018-03-14T02:38:14.603Z,6.83
2018-03-14T02:40:42.249Z,6.67
2018-03-14T02:43:09.722Z,6.88
2018-03-14T02:45:37.183Z,6.95
2018-03-14T02:48:04.653Z,6.90
2018-03-14T02:50:32.721Z,6.91
2018-03-14T02:53:00.156Z,6.96
2018-03-14T02:55:27.640Z,6.79
2018-03-14T02:57:55.098Z,6.82
2018-03-14T03:00:22.692Z,6.81
2018-03-14T03:02:50.133Z,6.72
2018-03-14T03:05:17.584Z,6.64
2018-03-14T03:07:45.045Z,6.67
2018-03-14T03:10:12.480Z,6.62
2018-03-14T03:12:39.954Z,6.73
2018-03-14T03:15:07.427Z,6.70
2018-03-14T03:17:34.864Z,6.63
2018-03-14T03:20:02.330Z,6.66
2018-03-14T03:22:29.771Z,6.66
2018-03-14T03:24:57.409Z,6.65
2018-03-14T03:27:24.858Z,6.56
2018-03-14T03:29:52.298Z,6.62
2018-03-14T03:32:19.780Z,6.65
2018-03-14T03:34:47.233Z,6.64
2018-03-14T03:37:14.887Z,6.59
2018-03-14T03:39:42.321Z,6.48
2018-03-14T03:42:09.784Z,6.31
2018-03-14T03:44:37.242Z,6.34
2018-03-14T03:47:04.693Z,6.19
2018-03-14T03:49:32.312Z,6.35
2018-03-14T03:51:59.753Z,6.20
2018-03-14T03:54:27.197Z,6.26
2018-03-14T03:56:54.758Z,6.14
2018-03-14T03:59:22.199Z,5.98
2018-03-14T04:01:49.686Z,5.99
2018-03-14T04:04:17.128Z,6.24
2018-03-14T04:06:44.565Z,6.28
2018-03-14T04:09:12.050Z,6.31
2018-03-14T04:11:39.489Z,6.41
2018-03-14T04:14:07.118Z,6.39
2018-03-14T04:16:34.557Z,6.41
2018-03-14T04:19:01.995Z,6.32
2018-03-14T04:21:29.469Z,6.37
2018-03-14T04:23:56.941Z,6.47
2018-03-14T04:26:24.404Z,6.27
2018-03-14T04:28:51.853Z,6.16
2018-03-14T04:31:19.293Z,5.90
2018-03-14T04:33:46.753Z,5.96
2018-03-14T04:36:14.213Z,6.15
2018-03-14T04:38:41.769Z,5.93
2018-03-14T04:41:09.207Z,6.02
2018-03-14T04:43:36.665Z,5.93
2018-03-14T04:46:04.132Z,6.06
2018-03-14T04:48:31.592Z,6.31
2018-03-14T04:50:59.237Z,6.29
2018-03-14T04:53:26.705Z,6.21
2018-03-14T04:55:54.141Z,6.14
2018-03-14T04:58:21.604Z,6.24
2018-03-14T05:00:49.061Z,6.35
2018-03-14T05:03:16.781Z,6.46
2018-03-14T05:05:44.218Z,6.49
2018-03-14T05:08:11.674Z,6.34
2018-03-14T05:10:39.157Z,6.22
2018-03-14T05:13:06.600Z,6.23
2018-03-14T05:15:34.066Z,6.27
2018-03-14T05:18:01.519Z,6.26
2018-03-14T05:20:28.981Z,6.19
2018-03-14T05:22:56.464Z,6.27
2018-03-14T05:25:23.905Z,6.32
2018-03-14T05:27:51.549Z,6.49
2018-03-14T05:30:18.984Z,6.35
2018-03-14T05:32:46.422Z,6.57
2018-03-14T05:35:13.884Z,6.59
2018-03-14T05:37:41.337Z,6.58
2018-03-14T05:40:09.132Z,6.36
2018-03-14T05:42:36.577Z,6.45
2018-03-14T05:45:04.019Z,6.63
2018-03-14T05:47:31.489Z,6.73
2018-03-14T05:49:58.926Z,6.65
2018-03-14T05:52:26.705Z,6.65
2018-03-14T05:54:54.142Z,6.63
2018-03-14T05:57:21.581Z,6.71
2018-03-14T05:59:49.058Z,6.59
2018-03-14T06:02:16.501Z,6.54
2018-03-14T06:04:43.961Z,6.44
2018-03-14T06:07:11.409Z,6.51
2018-03-14T06:09:38.862Z,6.67
2018-03-14T06:12:06.318Z,6.63
2018-03-14T06:14:33.765Z,6.62
2018-03-14T06:17:01.385Z,6.74
2018-03-14T06:19:28.823Z,6.85
2018-03-14T06:21:56.263Z,6.96
2018-03-14T06:24:23.721Z,6.98
2018-03-14T06:26:51.161Z,6.83
2018-03-14T06:29:18.676Z,6.89
2018-03-14T06:31:46.161Z,6.83
2018-03-14T06:34:13.605Z,6.85
2018-03-14T06:36:41.061Z,6.85
2018-03-14T06:39:08.500Z,6.84
2018-03-14T06:41:36.181Z,6.95
2018-03-14T06:44:03.621Z,6.94
2018-03-14T06:46:31.059Z,7.01
2018-03-14T06:48:58.525Z,6.90
2018-03-14T06:51:25.965Z,7.06
2018-03-14T06:53:53.609Z,7.09
2018-03-14T06:56:21.051Z,7.07
2018-03-14T06:59:00.368Z,6.98
2018-03-14T07:01:39.598Z,6.97
2018-03-14T07:04:18.829Z,7.02
2018-03-14T07:06:46.273Z,7.04
2018-03-14T07:09:13.727Z,7.00
2018-03-14T07:11:41.197Z,7.08
2018-03-14T07:14:08.661Z,7.12
2018-03-14T07:16:36.298Z,7.08
2018-03-14T07:19:03.733Z,7.21
2018-03-14T07:21:31.189Z,7.14
2018-03-14T07:23:58.654Z,7.22
2018-03-14T07:26:26.116Z,7.26
2018-03-14T07:28:53.751Z,7.24
2018-03-14T07:31:21.189Z,7.26
2018-03-14T07:33:48.636Z,7.26
2018-03-14T07:36:16.102Z,7.39
2018-03-14T07:38:43.557Z,7.37
2018-03-14T07:41:11.197Z,7.36
2018-03-14T07:43:38.635Z,7.41
2018-03-14T07:46:06.102Z,7.49
2018-03-14T07:48:33.619Z,7.56
2018-03-14T07:51:01.081Z,7.72
2018-03-14T07:53:28.562Z,7.83
2018-03-14T07:55:56.013Z,8.36
2018-03-14T07:58:23.467Z,8.38
2018-03-14T08:00:50.954Z,8.41
2018-03-14T08:03:18.414Z,8.75
2018-03-14T08:05:46.036Z,8.49
2018-03-14T08:08:13.445Z,8.46
2018-03-14T08:10:40.887Z,8.39
2018-03-14T08:13:08.358Z,8.48
2018-03-14T08:15:35.825Z,8.39
2018-03-14T08:18:03.449Z,8.34
2018-03-14T08:20:30.906Z,8.58
2018-03-14T08:22:58.352Z,8.60
2018-03-14T08:25:25.813Z,8.96
2018-03-14T08:27:53.281Z,8.94
2018-03-14T08:30:20.782Z,8.97
2018-03-14T08:32:48.225Z,8.77
2018-03-14T08:35:15.675Z,8.66
2018-03-14T08:37:43.173Z,8.71
2018-03-14T08:40:10.621Z,8.72
2018-03-14T08:42:38.241Z,8.70
2018-03-14T08:45:05.685Z,8.99
2018-03-14T08:47:33.129Z,9.01
2018-03-14T08:50:00.598Z,8.93
2018-03-14T08:52:28.062Z,9.02
2018-03-14T08:54:55.997Z,8.94
2018-03-14T08:57:23.444Z,9.27
2018-03-14T08:59:50.881Z,9.31
2018-03-14T09:02:18.345Z,9.78
2018-03-14T09:04:45.780Z,9.67
2018-03-14T09:07:13.261Z,9.63
2018-03-14T09:09:40.729Z,10.07
2018-03-14T09:12:08.181Z,10.04
2018-03-14T09:14:35.676Z,10.23
2018-03-14T09:17:03.137Z,10.40
2018-03-14T09:19:30.893Z,10.17
2018-03-14T09:21:58.347Z,9.86
2018-03-14T09:24:25.826Z,9.47
2018-03-14T09:26:53.297Z,9.85
2018-03-14T09:29:20.753Z,10.12
2018-03-14T09:31:48.492Z,10.30
2018-03-14T09:34:15.913Z,10.28
2018-03-14T09:36:43.351Z,10.30
2018-03-14T09:39:10.813Z,10.28
2018-03-14T09:41:38.261Z,10.79
2018-03-14T09:44:06.137Z,10.79
2018-03-14T09:46:33.585Z,10.62
2018-03-14T09:49:01.032Z,10.52
2018-03-14T09:51:28.532Z,10.37
2018-03-14T09:53:55.989Z,10.13
2018-03-14T09:56:23.462Z,10.32
2018-03-14T09:58:50.919Z,10.52
2018-03-14T10:01:18.369Z,10.65
2018-03-14T10:03:45.853Z,10.76
2018-03-14T10:06:13.302Z,10.91
2018-03-14T10:08:40.781Z,11.02
2018-03-14T10:11:08.254Z,10.98
2018-03-14T10:13:35.773Z,10.71
2018-03-14T10:16:03.245Z,10.68
2018-03-14T10:18:30.697Z,10.79
2018-03-14T10:20:58.453Z,10.75
2018-03-14T10:23:25.905Z,10.97
2018-03-14T10:25:53.356Z,10.76
2018-03-14T10:28:20.833Z,10.56
2018-03-14T10:30:48.321Z,11.00
2018-03-14T10:33:16.089Z,11.01
2018-03-14T10:35:43.551Z,10.85
2018-03-14T10:38:11.010Z,11.08
2018-03-14T10:40:38.504Z,10.96
2018-03-14T10:43:05.986Z,11.44
2018-03-14T10:45:33.588Z,11.06
2018-03-14T10:48:01.052Z,11.47
2018-03-14T10:50:28.498Z,11.50
2018-03-14T10:52:55.969Z,11.34
2018-03-14T10:55:23.442Z,11.44
2018-03-14T10:57:50.937Z,11.67
2018-03-14T11:00:23.945Z,11.78
2018-03-14T11:02:53.325Z,11.42
2018-03-14T11:05:20.793Z,12.14
2018-03-14T11:07:48.300Z,12.04
2018-03-14T11:10:15.735Z,11.75
2018-03-14T11:12:43.184Z,11.68
2018-03-14T11:15:11.074Z,11.92
2018-03-14T11:17:38.515Z,12.22
2018-03-14T11:20:05.973Z,12.28
2018-03-14T11:22:33.465Z,12.03
2018-03-14T11:25:00.914Z,12.46
2018-03-14T11:27:28.652Z,12.50
2018-03-14T11:29:56.120Z,11.71
2018-03-14T11:32:23.564Z,11.88
2018-03-14T11:34:51.064Z,11.80
2018-03-14T11:37:18.513Z,11.81
2018-03-14T11:39:46.190Z,11.83
2018-03-14T11:42:13.665Z,11.54
2018-03-14T11:44:41.189Z,11.92
2018-03-14T11:47:08.598Z,12.49
2018-03-14T11:49:36.043Z,11.91
2018-03-14T11:52:03.514Z,11.92
2018-03-14T11:54:30.970Z,11.90
2018-03-14T11:56:58.411Z,11.48
2018-03-14T11:59:25.883Z,11.64
2018-03-14T12:01:53.329Z,11.41
2018-03-14T12:04:20.987Z,11.66
2018-03-14T12:06:48.433Z,11.44
2018-03-14T12:09:15.881Z,11.28
2018-03-14T12:11:43.348Z,11.30
2018-03-14T12:14:10.785Z,11.30
2018-03-14T12:16:38.257Z,11.40
2018-03-14T12:19:05.693Z,11.52
2018-03-14T12:21:33.130Z,11.65
2018-03-14T12:24:00.609Z,11.24
2018-03-14T12:26:28.059Z,11.31
2018-03-14T12:28:55.684Z,11.43
2018-03-14T12:31:23.188Z,11.25
2018-03-14T12:33:51.313Z,11.49
2018-03-14T12:36:18.775Z,11.67
2018-03-14T12:38:46.230Z,11.59
2018-03-14T12:41:13.694Z,11.82
2018-03-14T12:43:41.136Z,11.43
2018-03-14T12:46:08.757Z,11.48
2018-03-14T12:48:36.214Z,11.63
2018-03-14T12:51:03.694Z,11.74
2018-03-14T12:53:31.290Z,11.40
2018-03-14T12:55:58.756Z,11.31
2018-03-14T12:58:26.229Z,11.36
2018-03-14T13:00:53.694Z,11.34
2018-03-14T13:03:21.135Z,11.56
2018-03-14T13:05:48.573Z,11.57
2018-03-14T13:08:16.616Z,11.23
2018-03-14T13:10:44.469Z,11.03
2018-03-14T13:13:11.936Z,11.10
2018-03-14T13:15:39.398Z,11.20
2018-03-14T13:18:06.862Z,11.13
2018-03-14T13:20:34.328Z,11.03
2018-03-14T13:23:01.769Z,11.09
2018-03-14T13:25:29.236Z,10.97
2018-03-14T13:27:56.718Z,11.08
2018-03-14T13:30:24.153Z,11.28
2018-03-14T13:32:51.604Z,11.60
2018-03-14T13:35:19.073Z,11.59
2018-03-14T13:37:46.525Z,11.67
2018-03-14T13:40:13.962Z,11.81
2018-03-14T13:42:41.421Z,11.81
2018-03-14T13:45:08.863Z,11.93
2018-03-14T13:47:36.307Z,11.85
2018-03-14T13:50:03.784Z,11.92
2018-03-14T13:52:31.240Z,11.89
2018-03-14T13:54:58.889Z,11.79
2018-03-14T13:57:26.401Z,11.69
2018-03-14T13:59:53.837Z,11.50
2018-03-14T14:02:21.276Z,11.72
2018-03-14T14:04:48.737Z,11.89
2018-03-14T14:07:16.229Z,12.07
2018-03-14T14:09:43.679Z,12.05
2018-03-14T14:12:12.126Z,12.07
2018-03-14T14:14:39.597Z,11.91
2018-03-14T14:17:07.046Z,12.27
2018-03-14T14:19:34.881Z,12.36
2018-03-14T14:22:02.325Z,12.06
2018-03-14T14:24:29.781Z,11.92
2018-03-14T14:26:57.397Z,11.67
2018-03-14T14:29:24.841Z,11.82
2018-03-14T14:31:52.821Z,12.10
2018-03-14T14:34:20.520Z,12.38
2018-03-14T14:36:47.973Z,12.55
2018-03-14T14:39:15.415Z,12.28
2018-03-14T14:41:43.645Z,12.51
2018-03-14T14:44:11.109Z,12.49
2018-03-14T14:46:38.549Z,12.99
2018-03-14T14:49:06.283Z,12.79
2018-03-14T14:51:33.748Z,12.28
2018-03-14T14:54:01.189Z,12.46
2018-03-14T14:56:28.661Z,12.80
2018-03-14T14:58:56.195Z,12.40
2018-03-14T15:01:23.729Z,12.08
2018-03-14T15:03:51.185Z,12.10
2018-03-14T15:06:18.868Z,12.05
2018-03-14T15:08:46.629Z,11.77
2018-03-14T15:11:14.069Z,11.50
2018-03-14T15:13:41.526Z,11.45
2018-03-14T15:16:08.988Z,11.53
2018-03-14T15:18:36.450Z,11.46
2018-03-14T15:21:04.034Z,11.40
2018-03-14T15:23:31.481Z,11.54
2018-03-14T15:25:59.501Z,11.57
2018-03-14T15:28:26.994Z,11.60
2018-03-14T15:30:54.434Z,11.57
2018-03-14T15:33:22.044Z,11.47
2018-03-14T15:35:49.489Z,11.66
2018-03-14T15:38:16.938Z,11.42
2018-03-14T15:40:44.449Z,11.51
2018-03-14T15:43:11.871Z,11.62
2018-03-14T15:45:39.559Z,11.51
2018-03-14T15:48:07.001Z,11.53
2018-03-14T15:50:34.466Z,11.52
2018-03-14T15:53:01.949Z,11.56
2018-03-14T15:55:29.396Z,11.72
2018-03-14T15:57:57.081Z,11.82
2018-03-14T16:00:24.522Z,11.82
2018-03-14T16:02:52.007Z,11.50
2018-03-14T16:05:19.463Z,11.35
2018-03-14T16:07:46.902Z,11.28
2018-03-14T16:10:14.639Z,11.20
2018-03-14T16:12:42.081Z,11.23
2018-03-14T16:15:09.554Z,11.21
2018-03-14T16:17:37.054Z,11.28
2018-03-14T16:20:04.502Z,11.31
2018-03-14T16:22:31.963Z,11.32
2018-03-14T16:24:59.413Z,11.18
2018-03-14T16:27:27.377Z,11.32
2018-03-14T16:29:54.890Z,11.16
2018-03-14T16:32:22.349Z,11.27
2018-03-14T16:34:50.009Z,11.29
2018-03-14T16:37:17.454Z,11.05
2018-03-14T16:39:44.902Z,11.06
2018-03-14T16:42:12.374Z,11.07
2018-03-14T16:44:39.885Z,11.06
2018-03-14T16:47:07.369Z,10.85
2018-03-14T16:49:34.830Z,10.91
2018-03-14T16:52:02.291Z,10.82
2018-03-14T16:54:29.757Z,10.73
2018-03-14T16:56:57.226Z,10.76
2018-03-14T16:59:24.718Z,10.58
2018-03-14T17:01:52.155Z,10.49
2018-03-14T17:04:19.601Z,10.43
2018-03-14T17:06:47.074Z,10.19
2018-03-14T17:09:14.524Z,10.05
2018-03-14T17:11:42.165Z,9.92
2018-03-14T17:14:09.988Z,9.93
2018-03-14T17:16:37.434Z,9.89
2018-03-14T17:19:04.910Z,9.82
2018-03-14T17:21:32.370Z,9.81
2018-03-14T17:23:59.864Z,9.73
2018-03-14T17:26:27.368Z,9.55
2018-03-14T17:28:54.807Z,9.42
2018-03-14T17:31:22.286Z,9.28
2018-03-14T17:33:49.721Z,9.13
2018-03-14T17:36:17.314Z,9.08
2018-03-14T17:38:44.763Z,8.81
2018-03-14T17:41:12.226Z,8.73
2018-03-14T17:43:39.689Z,8.64
2018-03-14T17:46:07.150Z,8.60
2018-03-14T17:48:34.630Z,8.41
2018-03-14T17:51:02.092Z,8.25
2018-03-14T17:53:29.553Z,8.04
2018-03-14T17:55:57.018Z,8.14
2018-03-14T17:58:24.453Z,8.12
2018-03-14T18:00:52.333Z,8.09
2018-03-14T18:03:19.777Z,7.85
2018-03-14T18:05:47.218Z,7.81
2018-03-14T18:08:14.690Z,7.74
2018-03-14T18:10:42.155Z,7.65
2018-03-14T18:13:09.809Z,7.69
2018-03-14T18:15:37.286Z,7.69
2018-03-14T18:18:04.752Z,7.59
2018-03-14T18:20:32.858Z,7.60
2018-03-14T18:23:00.304Z,7.55
2018-03-14T18:25:27.777Z,7.52
2018-03-14T18:27:55.222Z,7.59
2018-03-14T18:30:22.666Z,7.49
2018-03-14T18:32:50.126Z,7.48
2018-03-14T18:35:17.565Z,7.41
2018-03-14T18:37:45.166Z,7.18
2018-03-14T18:40:12.617Z,7.19
2018-03-14T18:42:40.067Z,7.16
2018-03-14T18:45:07.529Z,7.04
2018-03-14T18:47:34.974Z,7.13
2018-03-14T18:50:02.802Z,6.95
2018-03-14T18:52:30.245Z,6.90
2018-03-14T18:54:57.686Z,6.92
2018-03-14T18:57:25.149Z,6.95
2018-03-14T18:59:52.601Z,6.98
2018-03-14T19:02:20.237Z,7.05
2018-03-14T19:04:47.681Z,7.11
2018-03-14T19:07:15.137Z,7.15
2018-03-14T19:09:42.605Z,7.08
2018-03-14T19:12:10.052Z,7.03
2018-03-14T19:14:37.530Z,7.01
2018-03-14T19:17:05.026Z,7.06
2018-03-14T19:19:32.484Z,7.06
2018-03-14T19:22:00.913Z,7.06
2018-03-14T19:24:29.360Z,6.93
2018-03-14T19:26:56.994Z,6.92
2018-03-14T19:29:24.442Z,6.82
2018-03-14T19:31:51.876Z,6.88
2018-03-14T19:34:19.358Z,6.82
2018-03-14T19:36:47.713Z,6.88
2018-03-14T19:39:17.175Z,6.77
2018-03-14T19:41:44.621Z,6.66
2018-03-14T19:44:12.075Z,6.57
2018-03-14T19:46:39.538Z,6.59
2018-03-14T19:49:06.990Z,6.57
2018-03-14T19:51:34.854Z,6.57
2018-03-14T19:54:03.368Z,6.53
2018-03-14T19:56:30.813Z,6.51
2018-03-14T19:58:58.602Z,6.49
2018-03-14T20:01:26.046Z,6.43
2018-03-14T20:03:55.869Z,6.36
2018-03-14T20:06:24.389Z,6.41
2018-03-14T20:08:52.871Z,6.38
2018-03-14T20:11:20.952Z,6.49
2018-03-14T20:13:48.389Z,6.39
2018-03-14T20:16:16.430Z,6.26
2018-03-14T20:18:43.933Z,6.25
2018-03-14T20:21:11.398Z,6.21
2018-03-14T20:23:38.882Z,6.29
2018-03-14T20:26:06.325Z,6.15
2018-03-14T20:28:33.806Z,6.13
2018-03-14T20:31:03.088Z,6.15
2018-03-14T20:33:31.233Z,6.22
2018-03-14T20:35:58.731Z,6.20
2018-03-14T20:38:26.181Z,6.06
2018-03-14T20:40:54.922Z,6.06
2018-03-14T20:43:22.402Z,6.03
2018-03-14T20:45:50.350Z,5.98
2018-03-14T20:48:17.828Z,5.92
2018-03-14T20:50:45.286Z,5.99
2018-03-14T20:53:13.026Z,5.93
2018-03-14T20:55:41.259Z,5.82
2018-03-14T20:58:09.505Z,5.74
2018-03-14T21:00:36.988Z,5.78
2018-03-14T21:03:04.438Z,5.71
2018-03-14T21:05:32.137Z,5.67
2018-03-14T21:07:59.582Z,5.68
2018-03-14T21:10:27.059Z,5.60
2018-03-14T21:12:54.611Z,5.76
2018-03-14T21:15:22.097Z,5.58
2018-03-14T21:17:50.007Z,5.48
2018-03-14T21:20:17.463Z,5.50
2018-03-14T21:22:44.923Z,5.45
2018-03-14T21:25:12.390Z,5.40
2018-03-14T21:27:39.846Z,5.35
2018-03-14T21:30:07.454Z,5.37
2018-03-14T21:32:34.892Z,5.36
2018-03-14T21:35:02.361Z,5.38
2018-03-14T21:37:29.828Z,5.43
2018-03-14T21:39:57.272Z,5.49
2018-03-14T21:42:24.908Z,5.38
2018-03-14T21:44:52.386Z,5.45
2018-03-14T21:47:19.837Z,5.37
2018-03-14T21:49:47.301Z,5.32
2018-03-14T21:52:14.756Z,5.29
2018-03-14T21:54:42.417Z,5.26
2018-03-14T21:57:18.542Z,5.05
2018-03-14T21:59:46.205Z,5.01
2018-03-14T22:02:13.671Z,5.08
2018-03-14T22:04:41.102Z,5.07
2018-03-14T22:07:08.575Z,5.12
2018-03-14T22:09:36.018Z,5.06
2018-03-14T22:12:03.497Z,5.16
2018-03-14T22:14:30.944Z,5.22
2018-03-14T22:16:58.397Z,5.13
2018-03-14T22:19:25.894Z,5.10
2018-03-14T22:21:53.341Z,5.05
2018-03-14T22:24:21.005Z,5.08
2018-03-14T22:26:48.446Z,5.06
2018-03-14T22:29:15.898Z,5.03
2018-03-14T22:31:43.353Z,5.04
2018-03-14T22:34:10.806Z,5.01
2018-03-14T22:36:38.294Z,5.00
2018-03-14T22:39:05.733Z,4.94
2018-03-14T22:41:33.177Z,4.90
2018-03-14T22:44:00.639Z,4.84
2018-03-14T22:46:28.081Z,4.79
2018-03-14T22:48:55.701Z,4.80
2018-03-14T22:51:23.147Z,4.71
2018-03-14T22:53:50.616Z,4.68
2018-03-14T22:56:18.110Z,4.52
2018-03-14T22:58:45.595Z,4.57
2018-03-14T23:01:13.089Z,4.60
2018-03-14T23:03:40.534Z,4.53
2018-03-14T23:06:07.968Z,4.48
2018-03-14T23:08:35.453Z,4.50
2018-03-14T23:11:02.912Z,4.35
2018-03-14T23:13:30.391Z,4.29
2018-03-14T23:15:57.847Z,4.40
2018-03-14T23:18:25.290Z,4.50
2018-03-14T23:20:52.750Z,4.54
2018-03-14T23:23:20.210Z,4.48
2018-03-14T23:25:47.849Z,4.57
2018-03-14T23:28:15.314Z,4.57
2018-03-14T23:30:42.764Z,4.56
2018-03-14T23:33:10.251Z,4.50
2018-03-14T23:35:37.695Z,4.43
2018-03-14T23:38:05.505Z,4.46
2018-03-14T23:40:32.952Z,4.46
2018-03-14T23:43:00.393Z,4.41
2018-03-14T23:45:27.866Z,4.53
2018-03-14T23:47:55.302Z,4.40
2018-03-14T23:50:22.953Z,4.33
2018-03-14T23:52:50.408Z,4.33
2018-03-14T23:55:17.853Z,4.25
2018-03-14T23:57:45.329Z,4.17
